LEALLECO

Guest
Details From LEAL - Alicante
To LECO - A Coruna
Flight Number -
Tags Generated
Created
Modified
Stats Distance 466 nm / 863 km
Max Altitude 0 ft / 0 m
Waypoints 4
Social Downloads 1
Likes 0
Share VATSIM

Download

Looking for another format? Having issues loading an existing format? Contact us
Advertisement - Login to hide

Notes

Generated

Route

LEAL COTOS BERAX LECO

ID Type Via Altitude Latitude Longitude Leg Dist Tot Dist Heading (true) Name
O LEAL APT - 0 ft / 0 m 38.28452˚ -0.57500˚ - 0 nm - -
COTOS FIX - 0 ft / 0 m 40.73230˚ -4.06099˚ 218 nm 218 nm 313° / 311° -
BERAX FIX - 0 ft / 0 m 43.25123˚ -8.17267˚ 237 nm 456 nm 311° / 308° -
O LECO APT - 0 ft / 0 m 43.29478˚ -8.38323˚ 9 nm 465 nm 286° / 286° -

Altitude Profile

Advertisement - Login to hide

Weather


0- 5 10 15 20 25 30 35+ Temperature / ° C

Clouds and Precipitation
Forecast for 2017-12-18 12:00 UTC. Updated 2 hours ago

Ground ~20,000 ft ~40,000 ft Winds

LEAL

Details ICAO LEAL (ALC)
Name Alicante
Region Spain
Timezone Europe/Madrid (UTC+1.0)
Stats Elevation 141 ft / 43 m (AMSL)
Location 38.282169° -0.558157°
Runways 1
Magnetic Variation 0.185° E

METAR

LEAL 181100Z 30004KT 220V010 CAVOK 13/M02 Q1031 NOSIG

Decode

TAF

TAF TAF LEAL 180500Z 1806/1906 30005KT 9999 FEW030 TX15/1813Z TN04/1806Z TEMPO 1812/1818 22006KT BECMG 1819/1821 31015KT BECMG 1904/1906 01008KT

Decode

Departure Runways

ID Width Length Bearing (true) Bearing (mag) Surface Threshold Offset Overrun Length
10 148 ft / 45 m 9,799 ft / 2,987 m 100.07° 99.89° Asphalt 0 ft / 0 m 164 ft / 50 m
28 148 ft / 45 m 9,799 ft / 2,987 m 280.09° 279.91° Asphalt 0 ft / 0 m 197 ft / 60 m

LECO

Details ICAO LECO (LCG)
Name A Coruna
Region Spain
Timezone Europe/Madrid (UTC+1.0)
Stats Elevation 323 ft / 98 m (AMSL)
Location 43.302264° -8.377086°
Runways 1
Magnetic Variation 2.390° W

METAR

LECO 181100Z 17006KT 9999 SCT026 BKN039 06/04 Q1035 NOSIG

Decode

TAF

TAF LECO 180800Z 1809/1909 18005KT CAVOK TX13/1822Z TN04/1809Z BECMG 1815/1819 35010KT TEMPO 1818/1909 BKN014 PROB40 TEMPO 1817/1906 3000 -RADZ BKN005 BKN010 PROB40 TEMPO 1900/1909 0350 FG VV001

Decode

Destination Runways

ID Width Length Bearing (true) Bearing (mag) Surface Threshold Offset Overrun Length
04 148 ft / 45 m 6,371 ft / 1,942 m 30.94° 33.33° Asphalt 0 ft / 0 m 194 ft / 59 m
22 148 ft / 45 m 6,371 ft / 1,942 m 210.94° 213.33° Asphalt 0 ft / 0 m 203 ft / 62 m

Approach Navaids

Runway Type Ident Frequency Range Bearing (true) Bearing (mag) Slope Elevation
22 Localiser LCO 109.90 MHz 18 nm / 33 km 210.89° 213.28° - 329 ft / 100 m (AMSL)
22 Glidescope LCO 109.90 MHz 10 nm / 19 km 210.94° 213.33° 3.00° 323 ft / 98 m (AMSL)
22 DME LCO 109.90 MHz 18 nm / 33 km - - - 293 ft / 89 m (AMSL)

Popular Alternatives